createdAt,value
2023-01-21T00:00:48.093Z,0.37
2023-01-21T00:04:46.042Z,0.41
2023-01-21T00:08:47.159Z,0.42
2023-01-21T00:12:46.026Z,0.47
2023-01-21T00:16:44.101Z,0.50
2023-01-21T00:20:42.078Z,0.50
2023-01-21T00:24:40.975Z,0.51
2023-01-21T00:28:39.064Z,0.48
2023-01-21T00:32:40.326Z,0.46
2023-01-21T00:36:38.118Z,0.42
2023-01-21T00:40:35.967Z,0.47
2023-01-21T00:44:34.048Z,0.53
2023-01-21T00:48:31.935Z,0.46
2023-01-21T00:52:30.110Z,0.43
2023-01-21T00:56:27.949Z,0.45
2023-01-21T01:00:26.953Z,0.42
2023-01-21T01:04:26.918Z,0.41
2023-01-21T01:08:25.934Z,0.43
2023-01-21T01:12:23.998Z,0.45
2023-01-21T01:16:21.983Z,0.50
2023-01-21T01:20:19.953Z,0.44
2023-01-21T01:24:20.837Z,0.40
2023-01-21T01:28:19.906Z,0.40
2023-01-21T01:32:17.898Z,0.42
2023-01-21T01:36:21.907Z,0.40
2023-01-21T01:40:19.933Z,0.39
2023-01-21T01:44:13.978Z,0.42
2023-01-21T01:48:17.929Z,0.43
2023-01-21T01:52:19.864Z,0.43
2023-01-21T01:56:17.888Z,0.44
2023-01-21T02:00:23.850Z,0.46
2023-01-21T02:04:26.825Z,0.44
2023-01-21T02:08:26.843Z,0.46
2023-01-21T02:12:24.905Z,0.47
2023-01-21T02:16:22.856Z,0.50
2023-01-21T02:20:26.839Z,0.53
2023-01-21T02:24:50.795Z,0.50
2023-01-21T02:29:33.819Z,0.51
2023-01-21T02:33:31.820Z,0.51
2023-01-21T02:37:43.779Z,0.53
2023-01-21T02:42:11.900Z,0.52
2023-01-21T02:46:32.878Z,0.57
2023-01-21T02:50:44.917Z,0.58
2023-01-21T02:54:55.855Z,0.66
2023-01-21T02:59:01.772Z,0.61
2023-01-21T03:03:33.819Z,0.62
2023-01-21T03:07:44.734Z,0.62
2023-01-21T03:11:42.749Z,0.65
2023-01-21T03:16:22.800Z,0.64
2023-01-21T03:20:42.758Z,0.65
2023-01-21T03:24:40.767Z,0.76
2023-01-21T03:28:40.917Z,0.74
2023-01-21T03:32:41.829Z,0.74
2023-01-21T03:37:15.747Z,0.67
2023-01-21T03:41:23.987Z,0.67
2023-01-21T03:45:21.811Z,0.60
2023-01-21T03:49:45.695Z,0.59
2023-01-21T03:53:43.755Z,0.59
2023-01-21T03:57:42.694Z,0.58
2023-01-21T04:01:41.732Z,0.59
2023-01-21T04:05:39.694Z,0.58
2023-01-21T04:09:37.779Z,0.58
2023-01-21T04:13:35.705Z,0.58
2023-01-21T04:17:34.656Z,0.58
2023-01-21T04:21:32.744Z,0.61
2023-01-21T04:25:30.626Z,0.60
2023-01-21T04:29:28.642Z,0.61
2023-01-21T04:33:26.629Z,0.61
2023-01-21T04:37:34.698Z,0.62
2023-01-21T04:41:32.632Z,0.63
2023-01-21T04:45:32.608Z,0.63
2023-01-21T04:49:31.643Z,0.64
2023-01-21T04:53:30.703Z,0.66
2023-01-21T04:57:28.710Z,0.66
2023-01-21T05:01:26.573Z,0.66
2023-01-21T05:05:24.591Z,0.64
2023-01-21T05:09:22.562Z,0.62
2023-01-21T05:13:20.598Z,0.62
2023-01-21T05:17:18.609Z,0.60
2023-01-21T05:21:16.559Z,0.61
2023-01-21T05:25:15.553Z,0.62
2023-01-21T05:29:13.536Z,0.65
2023-01-21T05:33:11.547Z,0.68
2023-01-21T05:37:09.615Z,0.72
2023-01-21T05:41:17.572Z,0.78
2023-01-21T05:45:15.583Z,0.81
2023-01-21T05:49:13.558Z,0.81
2023-01-21T05:53:11.528Z,0.84
2023-01-21T05:57:09.494Z,0.86
2023-01-21T06:01:09.513Z,0.88
2023-01-21T06:05:07.636Z,0.88
2023-01-21T06:09:05.498Z,0.90
2023-01-21T06:13:07.432Z,0.92
2023-01-21T06:17:05.562Z,0.95
2023-01-21T06:21:03.565Z,0.97
2023-01-21T06:25:01.562Z,0.98
2023-01-21T06:28:59.492Z,0.99
2023-01-21T06:32:59.840Z,1.01
2023-01-21T06:36:57.456Z,1.03
2023-01-21T06:40:56.507Z,1.08
2023-01-21T06:44:54.391Z,1.12
2023-01-21T06:48:52.461Z,1.11
2023-01-21T06:52:50.461Z,1.11
2023-01-21T06:56:50.476Z,1.14
2023-01-21T07:00:48.437Z,1.15
2023-01-21T07:04:46.461Z,1.17
2023-01-21T07:08:44.639Z,1.18
2023-01-21T07:12:42.454Z,1.22
2023-01-21T07:16:40.388Z,1.27
2023-01-21T07:20:40.714Z,1.32
2023-01-21T07:24:38.460Z,1.35
2023-01-21T07:28:37.380Z,1.36
2023-01-21T07:32:35.447Z,1.39
2023-01-21T07:36:33.371Z,1.42
2023-01-21T07:40:31.375Z,1.44
2023-01-21T07:44:29.377Z,1.49
2023-01-21T07:48:28.387Z,1.55
2023-01-21T07:52:26.338Z,1.58
2023-01-21T07:56:24.445Z,1.61
2023-01-21T08:00:23.343Z,1.65
2023-01-21T08:04:21.307Z,1.71
2023-01-21T08:08:19.298Z,1.74
2023-01-21T08:12:19.325Z,1.76
2023-01-21T08:16:18.362Z,1.79
2023-01-21T08:20:16.313Z,1.82
2023-01-21T08:24:14.393Z,1.86
2023-01-21T08:28:14.280Z,1.90
2023-01-21T08:32:12.298Z,1.91
2023-01-21T08:36:14.286Z,1.94
2023-01-21T08:40:12.275Z,1.95
2023-01-21T08:44:10.323Z,1.97
2023-01-21T08:48:08.256Z,1.99
2023-01-21T08:52:07.227Z,2.03
2023-01-21T08:56:05.243Z,2.05
2023-01-21T09:00:03.272Z,2.07
2023-01-21T09:04:01.301Z,2.09
2023-01-21T09:07:59.228Z,2.12
2023-01-21T09:11:57.223Z,2.14
2023-01-21T09:15:56.308Z,2.18
2023-01-21T09:19:55.526Z,2.24
2023-01-21T09:23:55.293Z,2.32
2023-01-21T09:27:53.314Z,2.36
2023-01-21T09:31:51.273Z,2.41
2023-01-21T09:35:49.267Z,2.49
2023-01-21T09:39:49.140Z,2.60
2023-01-21T09:43:53.317Z,2.70
2023-01-21T09:47:54.271Z,2.80
2023-01-21T09:52:04.177Z,2.96
2023-01-21T09:56:04.250Z,3.20
2023-01-21T10:00:17.303Z,3.41
2023-01-21T10:04:30.281Z,3.52
2023-01-21T10:08:43.155Z,3.54
2023-01-21T10:13:08.143Z,3.52
2023-01-21T10:17:38.145Z,3.46
2023-01-21T10:21:51.120Z,3.37
2023-01-21T10:25:53.129Z,3.24
2023-01-21T10:29:54.109Z,3.18
2023-01-21T10:33:52.213Z,3.18
2023-01-21T10:38:05.094Z,3.18
2023-01-21T10:42:32.093Z,3.19
2023-01-21T10:47:15.090Z,3.27
2023-01-21T10:51:33.195Z,3.34
2023-01-21T10:56:01.071Z,3.43
2023-01-21T11:00:00.081Z,3.58
2023-01-21T11:04:06.046Z,3.67
2023-01-21T11:08:04.125Z,3.67
2023-01-21T11:12:02.043Z,3.67
2023-01-21T11:16:11.113Z,3.70
2023-01-21T11:20:37.057Z,3.71
2023-01-21T11:24:37.059Z,3.75
2023-01-21T11:28:42.048Z,3.87
2023-01-21T11:32:42.051Z,4.00
2023-01-21T11:36:39.996Z,4.10
2023-01-21T11:40:41.093Z,4.15
2023-01-21T11:44:40.043Z,4.22
2023-01-21T11:48:38.047Z,4.32
2023-01-21T11:52:36.057Z,4.34
2023-01-21T11:56:35.082Z,4.31
2023-01-21T12:00:36.024Z,4.32
2023-01-21T12:04:34.009Z,4.26
2023-01-21T12:08:49.011Z,4.29
2023-01-21T12:12:57.078Z,4.37
2023-01-21T12:17:33.594Z,4.40
2023-01-21T12:21:58.990Z,4.34
2023-01-21T12:26:12.019Z,4.37
2023-01-21T12:30:35.941Z,4.38
2023-01-21T12:34:55.927Z,4.50
2023-01-21T12:39:25.989Z,4.56
2023-01-21T12:43:32.935Z,4.72
2023-01-21T12:47:39.937Z,4.86
2023-01-21T12:51:44.930Z,4.98
2023-01-21T12:55:48.917Z,5.07
2023-01-21T12:59:55.908Z,5.09
2023-01-21T13:04:31.955Z,5.17
2023-01-21T13:08:51.000Z,5.22
2023-01-21T13:12:51.961Z,5.17
2023-01-21T13:16:53.870Z,5.19
2023-01-21T13:20:56.952Z,5.23
2023-01-21T13:25:22.970Z,5.28
2023-01-21T13:29:35.884Z,5.41
2023-01-21T13:33:47.484Z,5.51
2023-01-21T13:38:10.872Z,5.56
2023-01-21T13:42:22.975Z,5.52
2023-01-21T13:46:45.281Z,5.37
2023-01-21T13:50:55.893Z,5.25
2023-01-21T13:55:17.934Z,5.17
2023-01-21T13:59:20.927Z,5.04
2023-01-21T14:03:47.889Z,4.88
2023-01-21T14:07:56.825Z,4.72
2023-01-21T14:12:05.963Z,4.55
2023-01-21T14:16:22.926Z,4.42
2023-01-21T14:20:43.944Z,4.31
2023-01-21T14:24:58.793Z,4.20
2023-01-21T14:29:34.954Z,4.06
2023-01-21T14:33:40.814Z,3.90
2023-01-21T14:37:45.862Z,3.79
2023-01-21T14:42:15.807Z,3.71
2023-01-21T14:46:14.798Z,3.64
2023-01-21T14:50:13.759Z,3.57
2023-01-21T14:54:14.838Z,3.50
2023-01-21T14:58:14.870Z,3.42
2023-01-21T15:02:14.910Z,3.35
2023-01-21T15:06:22.755Z,3.29
2023-01-21T15:10:41.782Z,3.21
2023-01-21T15:14:42.790Z,3.13
2023-01-21T15:18:51.868Z,3.08
2023-01-21T15:22:55.732Z,3.03
2023-01-21T15:26:53.732Z,2.97
2023-01-21T15:30:58.682Z,2.91
2023-01-21T15:35:47.430Z,2.88
2023-01-21T15:39:48.428Z,2.86
2023-01-21T15:44:05.466Z,2.84
2023-01-21T15:48:12.451Z,2.83
2023-01-21T15:52:35.513Z,2.81
2023-01-21T15:57:09.331Z,2.79
2023-01-21T16:01:24.405Z,2.78
2023-01-21T16:05:38.457Z,2.77
2023-01-21T16:09:42.480Z,2.75
2023-01-21T16:14:11.662Z,2.74
2023-01-21T16:18:42.337Z,2.73
2023-01-21T16:22:45.339Z,2.71
2023-01-21T16:26:45.335Z,2.69
2023-01-21T16:30:46.439Z,2.67
2023-01-21T16:34:57.341Z,2.66
2023-01-21T16:38:57.355Z,2.64
2023-01-21T16:42:55.302Z,2.62
2023-01-21T16:46:55.330Z,2.61
2023-01-21T16:50:53.290Z,2.59
2023-01-21T16:55:03.478Z,2.58
2023-01-21T16:59:02.346Z,2.57
2023-01-21T17:03:01.361Z,2.56
2023-01-21T17:07:00.261Z,2.54
2023-01-21T17:11:11.268Z,2.53
2023-01-21T17:15:17.666Z,2.54
2023-01-21T17:19:23.239Z,2.53
2023-01-21T17:23:39.266Z,2.54
2023-01-21T17:27:37.255Z,2.53
2023-01-21T17:31:41.406Z,2.51
2023-01-21T17:35:40.189Z,2.50
2023-01-21T17:40:03.225Z,2.48
2023-01-21T17:44:04.185Z,2.50
2023-01-21T17:48:10.999Z,2.50
2023-01-21T17:52:12.264Z,2.51
2023-01-21T17:56:19.241Z,2.51
2023-01-21T18:00:38.204Z,2.51
2023-01-21T18:04:37.206Z,2.51
2023-01-21T18:08:35.154Z,2.49
2023-01-21T18:12:33.213Z,2.49
2023-01-21T18:16:31.191Z,2.49
2023-01-21T18:20:35.310Z,2.47
2023-01-21T18:24:33.143Z,2.47
2023-01-21T18:28:42.135Z,2.45
2023-01-21T18:32:42.649Z,2.44
2023-01-21T18:36:40.115Z,2.43
2023-01-21T18:40:39.204Z,2.42
2023-01-21T18:44:37.159Z,2.41
2023-01-21T18:48:37.081Z,2.39
2023-01-21T18:52:36.208Z,2.37
2023-01-21T18:56:34.278Z,2.37
2023-01-21T19:00:42.218Z,2.37
2023-01-21T19:04:40.168Z,2.35
2023-01-21T19:08:38.112Z,2.34
2023-01-21T19:12:37.109Z,2.32
2023-01-21T19:16:36.137Z,2.27
2023-01-21T19:20:36.068Z,2.20
2023-01-21T19:24:34.146Z,2.19
2023-01-21T19:28:32.085Z,2.21
2023-01-21T19:32:32.557Z,2.23
2023-01-21T19:36:33.328Z,2.26
2023-01-21T19:40:36.074Z,2.29
2023-01-21T19:44:34.009Z,2.30
2023-01-21T19:48:37.086Z,2.31
2023-01-21T19:52:34.973Z,2.32
2023-01-21T19:56:38.128Z,2.32
2023-01-21T20:00:39.023Z,2.32
2023-01-21T20:04:37.044Z,2.30
2023-01-21T20:08:38.978Z,2.19
2023-01-21T20:12:36.979Z,2.14
2023-01-21T20:16:35.005Z,2.13
2023-01-21T20:20:38.025Z,2.15
2023-01-21T20:24:37.020Z,2.17
2023-01-21T20:28:44.213Z,2.18
2023-01-21T20:32:42.089Z,2.09
2023-01-21T20:36:40.960Z,1.98
2023-01-21T20:40:44.189Z,1.93
2023-01-21T20:44:41.979Z,1.91
2023-01-21T20:48:50.009Z,1.94
2023-01-21T20:52:48.941Z,1.98
2023-01-21T20:56:46.892Z,2.02
2023-01-21T21:00:47.001Z,2.06
2023-01-21T21:04:44.908Z,2.08
2023-01-21T21:08:43.089Z,2.12
2023-01-21T21:12:40.941Z,2.14
2023-01-21T21:16:43.942Z,2.15
2023-01-21T21:20:50.899Z,2.15
2023-01-21T21:24:49.089Z,2.15
2023-01-21T21:28:46.873Z,2.17
2023-01-21T21:32:45.031Z,2.17
2023-01-21T21:36:42.856Z,2.18
2023-01-21T21:40:41.885Z,2.19
2023-01-21T21:44:39.861Z,2.17
2023-01-21T21:48:48.859Z,2.14
2023-01-21T21:52:46.932Z,2.14
2023-01-21T21:56:44.844Z,2.12
2023-01-21T22:00:42.893Z,2.11
2023-01-21T22:04:40.831Z,2.11
2023-01-21T22:08:38.772Z,2.11
2023-01-21T22:12:36.940Z,2.09
2023-01-21T22:16:38.847Z,1.96
2023-01-21T22:20:37.085Z,1.87
2023-01-21T22:24:34.960Z,1.80
2023-01-21T22:28:34.845Z,1.77
2023-01-21T22:32:33.172Z,1.75
2023-01-21T22:36:34.902Z,1.78
2023-01-21T22:40:32.775Z,1.82
2023-01-21T22:44:30.784Z,1.86
2023-01-21T22:48:28.730Z,1.88
2023-01-21T22:52:27.876Z,1.91
2023-01-21T22:56:49.590Z,1.93
2023-01-21T23:00:50.869Z,1.92
2023-01-21T23:04:49.746Z,1.93
2023-01-21T23:08:50.768Z,1.91
2023-01-21T23:12:48.794Z,1.75
2023-01-21T23:16:46.878Z,1.60
2023-01-21T23:20:44.709Z,1.59
2023-01-21T23:24:42.741Z,1.53
2023-01-21T23:28:40.725Z,1.46
2023-01-21T23:32:38.730Z,1.41
2023-01-21T23:36:36.788Z,1.41
2023-01-21T23:40:34.805Z,1.38
2023-01-21T23:44:32.780Z,1.35
2023-01-21T23:48:31.100Z,1.32
2023-01-21T23:52:37.703Z,1.28
2023-01-21T23:56:37.887Z,1.21
